Time;durP1;ratioP1;P1;durP2;ratioP2;P2;SDS_P1;SDS_P2;PMS_P1;PMS_P2;Temp;Humidity;BMP_temperature;BMP_pressure;BME280_temperature;BME280_humidity;BME280_pressure;Samples;Min_cycle;Max_cycle;Signal;HPM_P1;HPM_P2
2020/12/21 00:01:59;;;;;;;;;;;4.00;99.90;;;;;;4717864;30;19925;-83
2020/12/21 00:04:25;;;;;;;;;;;3.90;99.90;;;;;;4718381;30;20275;-82
2020/12/21 00:06:52;;;;;;;;;;;3.90;99.90;;;;;;4718550;30;19997;-83
2020/12/21 00:09:17;;;;;;;;;;;3.80;99.90;;;;;;4732145;30;20011;-82
2020/12/21 00:11:43;;;;;;;;;;;3.70;99.90;;;;;;4735834;30;19953;-83
2020/12/21 00:14:09;;;;;;;;;;;3.70;99.90;;;;;;4737026;30;20351;-82
2020/12/21 00:16:45;;;;;;;;;;;3.60;99.90;;;;;;4735399;30;19914;-82
2020/12/21 00:19:11;;;;;;;;;;;3.50;99.90;;;;;;4720911;30;19914;-82
2020/12/21 00:21:40;;;;;;;;;;;3.50;99.90;;;;;;4735673;30;19914;-82
2020/12/21 00:24:06;;;;;;;;;;;3.30;99.90;;;;;;4736901;30;19969;-82
2020/12/21 00:26:33;;;;;;;;;;;3.30;99.90;;;;;;4735509;30;19919;-82
2020/12/21 00:28:59;;;;;;;;;;;3.40;99.90;;;;;;4721346;30;20394;-82
2020/12/21 00:31:28;;;;;;;;;;;3.30;99.90;;;;;;4719327;30;19914;-82
2020/12/21 00:33:54;;;;;;;;;;;3.30;99.90;;;;;;4717762;30;20352;-82
2020/12/21 00:36:20;;;;;;;;;;;3.30;99.90;;;;;;4717911;30;19918;-82
2020/12/21 00:38:46;;;;;;;;;;;3.40;99.90;;;;;;4717875;30;19914;-82
2020/12/21 00:41:13;;;;;;;;;;;3.20;99.90;;;;;;4717794;30;19941;-82
2020/12/21 00:43:39;;;;;;;;;;;3.30;99.90;;;;;;4718834;30;19923;-82
2020/12/21 00:46:05;;;;;;;;;;;3.30;99.90;;;;;;4718072;30;20009;-82
2020/12/21 00:48:31;;;;;;;;;;;3.40;99.90;;;;;;4718651;30;19915;-82
2020/12/21 00:50:57;;;;;;;;;;;3.30;99.90;;;;;;4718018;30;20308;-82
2020/12/21 00:53:23;;;;;;;;;;;3.20;99.90;;;;;;4718732;30;20284;-82
2020/12/21 00:55:49;;;;;;;;;;;3.10;99.90;;;;;;4717372;30;20453;-82
2020/12/21 00:58:15;;;;;;;;;;;3.00;99.90;;;;;;4717481;30;19915;-83
2020/12/21 01:00:41;;;;;;;;;;;3.00;99.90;;;;;;4717422;30;19919;-82
2020/12/21 01:03:06;;;;;;;;;;;3.10;99.90;;;;;;4717548;30;20009;-82
2020/12/21 01:05:32;;;;;;;;;;;3.10;99.90;;;;;;4702881;30;20018;-82
2020/12/21 01:07:58;;;;;;;;;;;3.00;99.90;;;;;;4701872;30;19915;-82
2020/12/21 01:10:23;;;;;;;;;;;3.00;99.90;;;;;;4710499;30;19915;-82
2020/12/21 01:12:49;;;;;;;;;;;3.00;99.90;;;;;;4718516;30;19919;-82
2020/12/21 01:15:14;;;;;;;;;;;3.20;99.90;;;;;;4716775;30;19915;-83
2020/12/21 01:17:40;;;;;;;;;;;3.20;99.90;;;;;;4712947;30;20287;-82
2020/12/21 01:20:06;;;;;;;;;;;3.30;99.90;;;;;;4699481;30;20353;-82
2020/12/21 01:22:31;;;;;;;;;;;3.40;99.90;;;;;;4701277;30;19922;-82
2020/12/21 01:24:57;;;;;;;;;;;3.40;99.90;;;;;;4699914;30;20351;-82
2020/12/21 01:27:23;;;;;;;;;;;3.40;99.90;;;;;;4699205;30;19919;-82
2020/12/21 01:29:48;;;;;;;;;;;3.50;99.90;;;;;;4699269;30;19919;-82
2020/12/21 01:32:14;;;;;;;;;;;3.40;99.90;;;;;;4699701;30;19915;-82
2020/12/21 01:34:40;;;;;;;;;;;3.20;99.90;;;;;;4707100;30;19915;-81
2020/12/21 01:37:05;;;;;;;;;;;3.20;99.90;;;;;;4702375;30;19965;-82
2020/12/21 01:39:31;;;;;;;;;;;3.30;99.90;;;;;;4717155;30;19953;-82
2020/12/21 01:41:57;;;;;;;;;;;3.30;99.90;;;;;;4716589;30;19914;-82
2020/12/21 01:44:23;;;;;;;;;;;3.40;99.90;;;;;;4718041;30;20380;-82
2020/12/21 01:46:48;;;;;;;;;;;3.40;99.90;;;;;;4702286;30;20368;-82
2020/12/21 01:49:14;;;;;;;;;;;3.40;99.90;;;;;;4716542;30;19972;-82
2020/12/21 01:51:40;;;;;;;;;;;3.50;99.90;;;;;;4716695;30;19922;-82
2020/12/21 01:54:07;;;;;;;;;;;3.50;99.90;;;;;;4716704;30;19965;-82
2020/12/21 01:56:33;;;;;;;;;;;3.60;99.90;;;;;;4718194;30;19918;-82
2020/12/21 01:58:59;;;;;;;;;;;3.60;99.90;;;;;;4717915;30;19914;-82
2020/12/21 02:01:27;;;;;;;;;;;3.60;99.90;;;;;;4717011;30;19918;-82
2020/12/21 02:03:54;;;;;;;;;;;3.60;99.90;;;;;;4715758;30;19997;-82
2020/12/21 02:06:19;;;;;;;;;;;3.70;99.90;;;;;;4716486;30;20374;-82
2020/12/21 02:08:45;;;;;;;;;;;3.50;99.90;;;;;;4716518;30;19914;-82
2020/12/21 02:11:11;;;;;;;;;;;3.60;99.90;;;;;;4717459;30;19915;-82
2020/12/21 02:13:36;;;;;;;;;;;3.60;99.90;;;;;;4716595;30;19915;-82
2020/12/21 02:16:02;;;;;;;;;;;3.60;99.90;;;;;;4716817;30;19922;-82
2020/12/21 02:18:28;;;;;;;;;;;3.40;99.90;;;;;;4716101;30;19915;-82
2020/12/21 02:20:54;;;;;;;;;;;3.30;99.90;;;;;;4716147;30;19915;-82
2020/12/21 02:23:19;;;;;;;;;;;3.40;99.90;;;;;;4715705;30;19923;-83
2020/12/21 02:25:45;;;;;;;;;;;3.50;99.90;;;;;;4716085;30;19954;-82
2020/12/21 02:28:10;;;;;;;;;;;3.60;99.90;;;;;;4715929;30;20355;-82
2020/12/21 02:30:36;;;;;;;;;;;3.50;99.90;;;;;;4716143;30;19983;-82
2020/12/21 02:33:04;;;;;;;;;;;3.40;99.90;;;;;;4717810;30;19918;-82
2020/12/21 02:35:31;;;;;;;;;;;3.40;99.90;;;;;;4715849;30;19946;-82
2020/12/21 02:37:57;;;;;;;;;;;3.40;99.90;;;;;;4715996;30;19925;-83
2020/12/21 02:40:23;;;;;;;;;;;3.50;99.90;;;;;;4715073;30;20009;-82
2020/12/21 02:42:48;;;;;;;;;;;3.50;99.90;;;;;;4715906;30;19922;-82
2020/12/21 02:45:14;;;;;;;;;;;3.50;99.90;;;;;;4716013;30;19955;-82
2020/12/21 02:47:40;;;;;;;;;;;3.40;99.90;;;;;;4715947;30;19922;-82
2020/12/21 02:50:06;;;;;;;;;;;3.40;99.90;;;;;;4700960;30;19915;-82
2020/12/21 02:52:31;;;;;;;;;;;3.40;99.90;;;;;;4698551;30;19915;-82
2020/12/21 02:54:57;;;;;;;;;;;3.30;99.90;;;;;;4698318;30;20237;-82
2020/12/21 02:57:24;;;;;;;;;;;3.30;99.90;;;;;;4699831;30;19915;-82
2020/12/21 02:59:50;;;;;;;;;;;3.10;99.90;;;;;;4698530;30;19993;-82
2020/12/21 03:02:15;;;;;;;;;;;3.00;99.90;;;;;;4707171;30;19965;-82
2020/12/21 03:04:41;;;;;;;;;;;3.00;99.90;;;;;;4737846;30;20001;-82
2020/12/21 03:07:06;;;;;;;;;;;2.90;99.90;;;;;;4748316;30;19922;-82
2020/12/21 03:09:32;;;;;;;;;;;3.00;99.90;;;;;;4733137;30;20283;-82
2020/12/21 03:11:58;;;;;;;;;;;3.10;99.90;;;;;;4733231;30;19921;-82
2020/12/21 03:14:23;;;;;;;;;;;3.20;99.90;;;;;;4733087;30;19920;-82
2020/12/21 03:16:49;;;;;;;;;;;3.30;99.90;;;;;;4733197;30;20001;-82
2020/12/21 03:19:15;;;;;;;;;;;3.20;99.90;;;;;;4734217;30;19921;-82
2020/12/21 03:21:40;;;;;;;;;;;3.30;99.90;;;;;;4734263;30;19915;-82
2020/12/21 03:24:06;;;;;;;;;;;3.30;99.90;;;;;;4733264;30;20084;-82
2020/12/21 03:26:32;;;;;;;;;;;3.20;99.90;;;;;;4733202;30;20249;-82
2020/12/21 03:28:57;;;;;;;;;;;3.20;99.90;;;;;;4721152;30;19988;-82
2020/12/21 03:31:23;;;;;;;;;;;3.10;99.90;;;;;;4716649;30;19998;-82
2020/12/21 03:33:48;;;;;;;;;;;3.20;99.90;;;;;;4716539;30;19918;-82
2020/12/21 03:36:14;;;;;;;;;;;3.20;99.90;;;;;;4715396;30;20367;-82
2020/12/21 03:38:40;;;;;;;;;;;3.30;99.90;;;;;;4715699;30;20009;-82
2020/12/21 03:41:06;;;;;;;;;;;3.20;99.90;;;;;;4717035;30;19915;-81
2020/12/21 03:43:31;;;;;;;;;;;3.10;99.90;;;;;;4715451;30;19919;-82
2020/12/21 03:45:57;;;;;;;;;;;3.10;99.90;;;;;;4716201;30;19926;-82
2020/12/21 03:48:22;;;;;;;;;;;3.10;99.90;;;;;;4719569;30;19918;-81
2020/12/21 03:50:48;;;;;;;;;;;3.00;99.90;;;;;;4732882;30;20048;-82
2020/12/21 03:53:14;;;;;;;;;;;2.90;99.90;;;;;;4737369;30;20000;-81
2020/12/21 03:55:39;;;;;;;;;;;2.80;99.90;;;;;;4736671;30;20346;-82
2020/12/21 03:58:05;;;;;;;;;;;2.60;99.90;;;;;;4737245;30;19914;-82
2020/12/21 04:00:31;;;;;;;;;;;2.60;99.90;;;;;;4737205;30;20241;-82
2020/12/21 04:02:57;;;;;;;;;;;2.70;99.90;;;;;;4735836;30;19918;-82
2020/12/21 04:05:22;;;;;;;;;;;2.60;99.90;;;;;;4733564;30;20388;-81
2020/12/21 04:07:48;;;;;;;;;;;2.50;99.90;;;;;;4735371;30;19946;-82
2020/12/21 04:10:14;;;;;;;;;;;2.50;99.90;;;;;;4735377;30;19918;-82
2020/12/21 04:12:39;;;;;;;;;;;2.50;99.90;;;;;;4735971;30;19921;-82
2020/12/21 04:15:05;;;;;;;;;;;2.50;99.90;;;;;;4735123;30;19997;-82
2020/12/21 04:17:31;;;;;;;;;;;2.40;99.90;;;;;;4736574;30;19915;-82
2020/12/21 04:19:57;;;;;;;;;;;2.30;99.90;;;;;;4735333;30;19964;-82
2020/12/21 04:22:23;;;;;;;;;;;2.20;99.90;;;;;;4736378;30;19914;-82
2020/12/21 04:24:48;;;;;;;;;;;2.30;99.90;;;;;;4735486;30;19959;-82
2020/12/21 04:27:14;;;;;;;;;;;2.30;99.90;;;;;;4735228;30;19925;-82
2020/12/21 04:29:40;;;;;;;;;;;2.30;99.90;;;;;;4737075;30;19946;-82
2020/12/21 04:32:05;;;;;;;;;;;2.30;99.90;;;;;;4725365;30;19964;-82
2020/12/21 04:34:31;;;;;;;;;;;2.30;99.90;;;;;;4717515;30;19921;-82
2020/12/21 04:36:57;;;;;;;;;;;2.20;99.90;;;;;;4717546;30;19915;-82
2020/12/21 04:39:23;;;;;;;;;;;2.10;99.90;;;;;;4717498;30;19972;-82
2020/12/21 04:41:52;;;;;;;;;;;2.00;99.90;;;;;;4718683;30;19949;-82
2020/12/21 04:44:18;;;;;;;;;;;2.10;99.90;;;;;;4717541;30;20068;-82
2020/12/21 04:46:45;;;;;;;;;;;2.10;99.90;;;;;;4719156;30;19922;-82
2020/12/21 04:49:12;;;;;;;;;;;2.20;99.90;;;;;;4717863;30;20383;-82
2020/12/21 04:51:40;;;;;;;;;;;2.10;99.90;;;;;;4718460;30;19922;-82
2020/12/21 04:54:08;;;;;;;;;;;2.10;99.90;;;;;;4717545;30;19988;-82
2020/12/21 04:56:34;;;;;;;;;;;2.10;99.90;;;;;;4717388;30;20041;-82
2020/12/21 04:58:59;;;;;;;;;;;2.10;99.90;;;;;;4718721;30;19918;-82
2020/12/21 05:01:25;;;;;;;;;;;2.10;99.90;;;;;;4735559;30;19925;-82
2020/12/21 05:03:51;;;;;;;;;;;2.20;99.90;;;;;;4716652;30;20334;-82
2020/12/21 05:06:17;;;;;;;;;;;2.20;99.90;;;;;;4718499;30;19914;-83
2020/12/21 05:08:44;;;;;;;;;;;2.10;99.90;;;;;;4717981;30;19922;-82
2020/12/21 05:11:10;;;;;;;;;;;2.00;99.90;;;;;;4717438;30;19919;-82
2020/12/21 05:13:35;;;;;;;;;;;2.00;99.90;;;;;;4717345;30;20302;-82
2020/12/21 05:16:01;;;;;;;;;;;2.00;99.90;;;;;;4718508;30;20370;-82
2020/12/21 05:18:28;;;;;;;;;;;2.00;99.90;;;;;;4716678;30;19915;-82
2020/12/21 05:20:57;;;;;;;;;;;2.00;99.90;;;;;;4716765;30;19915;-81
2020/12/21 05:23:23;;;;;;;;;;;1.90;99.90;;;;;;4717157;30;19988;-83
2020/12/21 05:26:00;;;;;;;;;;;1.90;99.90;;;;;;4709748;30;19927;-82
2020/12/21 05:28:26;;;;;;;;;;;1.90;99.90;;;;;;4699712;30;20331;-83
2020/12/21 05:30:53;;;;;;;;;;;1.70;99.90;;;;;;4700847;30;19915;-82
2020/12/21 05:33:18;;;;;;;;;;;1.80;99.90;;;;;;4699444;30;19914;-82
2020/12/21 05:35:44;;;;;;;;;;;1.80;99.90;;;;;;4700023;30;20009;-82
2020/12/21 05:38:23;;;;;;;;;;;1.80;99.90;;;;;;4700865;30;20389;-82
2020/12/21 05:40:49;;;;;;;;;;;1.80;99.90;;;;;;4699639;30;20280;-82
2020/12/21 05:43:22;;;;;;;;;;;1.80;99.90;;;;;;4699779;30;19919;-82
2020/12/21 05:45:47;;;;;;;;;;;1.80;99.90;;;;;;4700675;30;20041;-82
2020/12/21 05:48:14;;;;;;;;;;;1.80;99.90;;;;;;4699882;30;19947;-82
2020/12/21 05:50:41;;;;;;;;;;;1.80;99.90;;;;;;4699231;30;19919;-82
2020/12/21 05:53:07;;;;;;;;;;;1.60;99.90;;;;;;4716302;30;19915;-82
2020/12/21 05:55:33;;;;;;;;;;;1.60;99.90;;;;;;4716680;30;19946;-82
2020/12/21 05:57:59;;;;;;;;;;;1.60;99.90;;;;;;4717746;30;19915;-82
2020/12/21 06:00:24;;;;;;;;;;;1.70;99.90;;;;;;4714019;30;19918;-82
2020/12/21 06:02:55;;;;;;;;;;;1.70;99.90;;;;;;4717403;30;19925;-82
2020/12/21 06:05:27;;;;;;;;;;;1.80;99.90;;;;;;4717615;30;20381;-82
2020/12/21 06:08:00;;;;;;;;;;;1.80;99.90;;;;;;4717751;30;19921;-82
2020/12/21 06:10:28;;;;;;;;;;;1.70;99.90;;;;;;4716271;30;19919;-82
2020/12/21 06:12:54;;;;;;;;;;;1.50;99.90;;;;;;4699737;30;19989;-82
2020/12/21 06:15:22;;;;;;;;;;;1.50;99.90;;;;;;4700018;30;20364;-82
2020/12/21 06:17:48;;;;;;;;;;;1.60;99.90;;;;;;4699385;30;20383;-82
2020/12/21 06:20:13;;;;;;;;;;;1.50;99.90;;;;;;4698299;30;19915;-82
2020/12/21 06:22:39;;;;;;;;;;;1.50;99.90;;;;;;4698635;30;20038;-82
2020/12/21 06:25:05;;;;;;;;;;;1.50;99.90;;;;;;4699834;30;19915;-82
2020/12/21 06:27:37;;;;;;;;;;;1.40;99.90;;;;;;4699745;30;19922;-81
2020/12/21 06:30:05;;;;;;;;;;;1.30;99.90;;;;;;4699966;30;19946;-81
2020/12/21 06:32:31;;;;;;;;;;;1.40;99.90;;;;;;4714489;30;20000;-82
2020/12/21 06:34:57;;;;;;;;;;;1.40;99.90;;;;;;4715908;30;19915;-82
2020/12/21 06:37:24;;;;;;;;;;;1.50;99.90;;;;;;4715615;30;19922;-82
2020/12/21 06:40:05;;;;;;;;;;;1.50;99.90;;;;;;4717548;30;19953;-82
2020/12/21 06:42:31;;;;;;;;;;;1.50;99.90;;;;;;4715405;30;19916;-82
2020/12/21 06:44:57;;;;;;;;;;;1.50;99.90;;;;;;4716034;30;19922;-82
2020/12/21 06:47:24;;;;;;;;;;;1.40;99.90;;;;;;4715926;30;19915;-82
2020/12/21 06:49:50;;;;;;;;;;;1.40;99.90;;;;;;4716129;30;19957;-82
2020/12/21 06:52:15;;;;;;;;;;;1.50;99.90;;;;;;4715665;30;19970;-82
2020/12/21 06:54:42;;;;;;;;;;;1.50;99.90;;;;;;4715692;30;20494;-82
2020/12/21 06:57:08;;;;;;;;;;;1.40;99.90;;;;;;4717223;30;19976;-82
2020/12/21 06:59:33;;;;;;;;;;;1.40;99.90;;;;;;4708537;30;19915;-82
2020/12/21 07:01:59;;;;;;;;;;;1.30;99.90;;;;;;4699573;30;19918;-81
2020/12/21 07:04:32;;;;;;;;;;;1.30;99.90;;;;;;4698018;30;20014;-82
2020/12/21 07:07:03;;;;;;;;;;;1.40;99.90;;;;;;4699444;30;19915;-82
2020/12/21 07:09:30;;;;;;;;;;;1.40;99.90;;;;;;4698535;30;19915;-82
2020/12/21 07:11:56;;;;;;;;;;;1.40;99.90;;;;;;4698449;30;20002;-82
2020/12/21 07:14:23;;;;;;;;;;;1.50;99.90;;;;;;4708348;30;20010;-81
2020/12/21 07:16:49;;;;;;;;;;;1.50;99.90;;;;;;4717304;30;19915;-82
2020/12/21 07:19:15;;;;;;;;;;;1.50;99.90;;;;;;4715709;30;20391;-82
2020/12/21 07:21:41;;;;;;;;;;;1.50;99.90;;;;;;4716355;30;20006;-81
2020/12/21 07:24:09;;;;;;;;;;;1.50;99.90;;;;;;4715690;30;19926;-82
2020/12/21 07:26:36;;;;;;;;;;;1.50;99.90;;;;;;4717971;30;19953;-81
2020/12/21 07:29:02;;;;;;;;;;;1.50;99.90;;;;;;4720087;30;20005;-82
2020/12/21 07:31:28;;;;;;;;;;;1.40;99.90;;;;;;4718945;30;20275;-81
2020/12/21 07:33:55;;;;;;;;;;;1.40;99.90;;;;;;4719703;30;19915;-81
2020/12/21 07:36:22;;;;;;;;;;;1.40;99.90;;;;;;4720526;30;20876;-81
2020/12/21 07:38:48;;;;;;;;;;;1.50;99.90;;;;;;4720206;30;20348;-81
2020/12/21 07:41:18;;;;;;;;;;;1.60;99.90;;;;;;4713268;30;20291;-80
2020/12/21 07:43:45;;;;;;;;;;;1.80;99.90;;;;;;4719841;30;19918;-80
2020/12/21 07:46:18;;;;;;;;;;;1.80;99.90;;;;;;4703870;30;19919;-80
2020/12/21 07:48:44;;;;;;;;;;;1.90;99.90;;;;;;4703770;30;19915;-81
2020/12/21 07:51:10;;;;;;;;;;;1.80;99.90;;;;;;4704045;30;20001;-80
2020/12/21 07:53:40;;;;;;;;;;;1.80;99.90;;;;;;4718732;30;19915;-80
2020/12/21 07:56:06;;;;;;;;;;;1.80;99.90;;;;;;4718007;30;19921;-80
2020/12/21 07:58:35;;;;;;;;;;;1.90;99.90;;;;;;4703833;30;19950;-80
2020/12/21 08:01:01;;;;;;;;;;;1.70;99.90;;;;;;4704157;30;19946;-81
2020/12/21 08:03:28;;;;;;;;;;;1.70;99.90;;;;;;4711782;30;20372;-81
2020/12/21 08:06:07;;;;;;;;;;;1.80;99.90;;;;;;4718848;30;19923;-80
2020/12/21 08:08:32;;;;;;;;;;;1.80;99.90;;;;;;4718041;30;20001;-80
2020/12/21 08:10:58;;;;;;;;;;;1.90;99.90;;;;;;4716919;30;20016;-80
2020/12/21 08:13:24;;;;;;;;;;;2.10;99.90;;;;;;4703473;30;20364;-80
2020/12/21 08:15:50;;;;;;;;;;;2.30;99.90;;;;;;4703355;30;19914;-80
2020/12/21 08:18:16;;;;;;;;;;;2.50;99.90;;;;;;4719341;30;20300;-80
2020/12/21 08:20:51;;;;;;;;;;;2.70;99.90;;;;;;4707572;30;19921;-81
2020/12/21 08:23:21;;;;;;;;;;;2.70;99.90;;;;;;4703100;30;20013;-79
2020/12/21 08:25:46;;;;;;;;;;;2.60;99.90;;;;;;4718188;30;20248;-80
2020/12/21 08:28:14;;;;;;;;;;;2.70;99.90;;;;;;4717963;30;19915;-80
2020/12/21 08:30:42;;;;;;;;;;;3.20;99.90;;;;;;4712902;30;19915;-79
2020/12/21 08:33:14;;;;;;;;;;;3.50;99.90;;;;;;4685979;30;19915;-79
2020/12/21 08:35:42;;;;;;;;;;;3.50;99.90;;;;;;4717726;30;19925;-79
2020/12/21 08:38:14;;;;;;;;;;;3.60;99.90;;;;;;4717587;30;19915;-80
2020/12/21 08:40:43;;;;;;;;;;;3.70;99.90;;;;;;4703201;30;19919;-80
2020/12/21 08:43:12;;;;;;;;;;;3.60;99.90;;;;;;4717655;30;19933;-79
2020/12/21 08:45:37;;;;;;;;;;;3.50;99.90;;;;;;4717309;30;20356;-78
2020/12/21 08:48:03;;;;;;;;;;;3.60;99.90;;;;;;4711858;30;19915;-79
2020/12/21 08:50:31;;;;;;;;;;;3.80;99.90;;;;;;4699942;30;19919;-80
2020/12/21 08:53:00;;;;;;;;;;;3.90;99.90;;;;;;4702070;30;19915;-75
2020/12/21 08:55:29;;;;;;;;;;;4.00;99.90;;;;;;4718523;30;20341;-80
2020/12/21 08:57:58;;;;;;;;;;;3.90;99.90;;;;;;4718031;30;20001;-79
2020/12/21 09:28:57;;;;;;;;;;;4.90;99.90;;;;;;4589221;31;19964;-83
2020/12/21 09:31:29;;;;;;;;;;;4.80;99.90;;;;;;4596791;31;19921;-83
2020/12/21 09:34:23;;;;;;;;;;;4.70;99.90;;;;;;4600234;30;19916;-80
2020/12/21 09:36:49;;;;;;;;;;;4.60;99.90;;;;;;4601897;31;19951;-83
2020/12/21 09:39:20;;;;;;;;;;;4.60;99.90;;;;;;4632121;30;19916;-84
2020/12/21 09:41:51;;;;;;;;;;;4.80;99.90;;;;;;4699133;30;19950;-82
2020/12/21 09:44:17;;;;;;;;;;;5.00;99.90;;;;;;4683678;30;19976;-83
2020/12/21 09:46:48;;;;;;;;;;;5.10;99.90;;;;;;4714175;30;19915;-82
2020/12/21 09:49:14;;;;;;;;;;;5.00;99.90;;;;;;4714945;30;19993;-83
2020/12/21 09:51:42;;;;;;;;;;;5.10;99.90;;;;;;4712093;30;19990;-84
2020/12/21 09:54:08;;;;;;;;;;;5.40;99.90;;;;;;4700740;30;19915;-81
2020/12/21 09:56:34;;;;;;;;;;;5.70;99.90;;;;;;4712872;30;19915;-83
2020/12/21 09:59:00;;;;;;;;;;;5.60;99.90;;;;;;4714579;30;19969;-84
2020/12/21 10:01:29;;;;;;;;;;;5.90;99.90;;;;;;4714131;30;19923;-83
2020/12/21 10:03:56;;;;;;;;;;;6.00;99.90;;;;;;4716245;30;19919;-83
2020/12/21 10:06:22;;;;;;;;;;;6.00;99.90;;;;;;4717481;30;20286;-84
2020/12/21 10:08:50;;;;;;;;;;;6.10;99.90;;;;;;4702595;30;19915;-83
2020/12/21 10:11:19;;;;;;;;;;;6.30;99.90;;;;;;4707075;30;19949;-83
2020/12/21 10:13:45;;;;;;;;;;;6.50;99.90;;;;;;4707797;30;20325;-84
2020/12/21 10:16:11;;;;;;;;;;;6.80;99.90;;;;;;4700008;30;19915;-83
2020/12/21 10:18:36;;;;;;;;;;;7.00;99.90;;;;;;4699802;30;19976;-83
2020/12/21 10:21:05;;;;;;;;;;;7.10;99.90;;;;;;4702237;30;19968;-82
2020/12/21 10:23:30;;;;;;;;;;;7.30;99.90;;;;;;4734319;30;19992;-74
2020/12/21 10:26:06;;;;;;;;;;;7.50;99.90;;;;;;4725132;30;19950;-77
2020/12/21 10:28:50;;;;;;;;;;;7.60;99.90;;;;;;4721232;30;19915;-77
2020/12/21 10:31:16;;;;;;;;;;;7.70;99.90;;;;;;4725258;30;19922;-76
2020/12/21 10:33:45;;;;;;;;;;;7.80;99.90;;;;;;4708653;30;20382;-75
2020/12/21 10:36:17;;;;;;;;;;;7.90;99.90;;;;;;4723425;30;19921;-78
2020/12/21 10:38:42;;;;;;;;;;;8.10;99.90;;;;;;4708507;30;20335;-76
2020/12/21 10:41:08;;;;;;;;;;;8.60;99.90;;;;;;4723594;30;19993;-76
2020/12/21 10:43:39;;;;;;;;;;;8.80;99.90;;;;;;4723891;30;19922;-79
2020/12/21 10:46:05;;;;;;;;;;;8.90;99.90;;;;;;4722872;30;19915;-77
2020/12/21 10:48:30;;;;;;;;;;;9.20;99.90;;;;;;4725420;30;19922;-76
2020/12/21 10:50:56;;;;;;;;;;;8.90;99.90;;;;;;4723972;30;19919;-76
2020/12/21 10:53:22;;;;;;;;;;;9.00;99.90;;;;;;4707779;30;20255;-76
2020/12/21 10:55:53;;;;;;;;;;;9.10;99.90;;;;;;4709411;30;20001;-75
2020/12/21 10:58:21;;;;;;;;;;;9.20;99.90;;;;;;4708765;30;19922;-76
2020/12/21 11:00:47;;;;;;;;;;;9.40;99.90;;;;;;4723203;30;19921;-78
2020/12/21 11:03:15;;;;;;;;;;;9.40;99.90;;;;;;4723425;30;19934;-76
2020/12/21 11:05:40;;;;;;;;;;;9.30;99.90;;;;;;4717742;30;20403;-81
2020/12/21 11:08:07;;;;;;;;;;;9.30;99.90;;;;;;4721314;30;19923;-80
2020/12/21 11:10:32;;;;;;;;;;;9.30;99.90;;;;;;4725240;30;19960;-80
2020/12/21 11:12:58;;;;;;;;;;;9.30;99.90;;;;;;4708008;30;19950;-80
2020/12/21 11:15:24;;;;;;;;;;;9.40;99.90;;;;;;4720974;30;19997;-81
2020/12/21 11:17:51;;;;;;;;;;;9.50;99.90;;;;;;4726195;30;20021;-82
2020/12/21 11:20:17;;;;;;;;;;;9.60;99.90;;;;;;4721622;30;19946;-82
2020/12/21 11:22:43;;;;;;;;;;;9.70;99.90;;;;;;4715485;30;19953;-82
2020/12/21 11:25:10;;;;;;;;;;;10.00;99.90;;;;;;4714485;30;20037;-82
2020/12/21 11:27:36;;;;;;;;;;;10.00;99.90;;;;;;4715876;30;19919;-82
2020/12/21 11:30:01;;;;;;;;;;;9.90;99.90;;;;;;4716251;30;20303;-82
2020/12/21 11:32:27;;;;;;;;;;;9.90;99.90;;;;;;4718155;30;19953;-79
2020/12/21 11:34:53;;;;;;;;;;;9.90;99.90;;;;;;4715529;30;19964;-78
2020/12/21 11:37:18;;;;;;;;;;;9.90;99.90;;;;;;4721500;30;19914;-79
2020/12/21 11:39:57;;;;;;;;;;;9.90;99.90;;;;;;4716115;30;19921;-81
2020/12/21 11:42:22;;;;;;;;;;;9.80;99.90;;;;;;4716191;30;19954;-78
2020/12/21 11:44:48;;;;;;;;;;;9.80;99.90;;;;;;4716282;30;19969;-77
2020/12/21 11:47:14;;;;;;;;;;;9.60;99.90;;;;;;4700028;30;19919;-77
2020/12/21 11:49:39;;;;;;;;;;;9.70;99.90;;;;;;4716033;30;20014;-78
2020/12/21 11:52:05;;;;;;;;;;;9.60;99.90;;;;;;4716351;30;19946;-77
2020/12/21 11:54:31;;;;;;;;;;;9.60;99.90;;;;;;4716054;30;19915;-77
2020/12/21 11:56:57;;;;;;;;;;;9.60;99.90;;;;;;4716367;30;20314;-78
2020/12/21 11:59:23;;;;;;;;;;;9.60;99.90;;;;;;4716240;30;19922;-77
2020/12/21 12:01:53;;;;;;;;;;;9.60;99.90;;;;;;4716123;30;19919;-77
2020/12/21 12:04:19;;;;;;;;;;;9.70;99.90;;;;;;4718716;30;19965;-77
2020/12/21 12:06:45;;;;;;;;;;;9.70;99.90;;;;;;4733178;30;19953;-77
2020/12/21 12:09:10;;;;;;;;;;;9.90;99.90;;;;;;4734983;30;19946;-76
2020/12/21 12:11:36;;;;;;;;;;;10.10;99.90;;;;;;4734629;30;20295;-77
2020/12/21 12:14:02;;;;;;;;;;;10.10;99.90;;;;;;4736261;30;19914;-76
2020/12/21 12:16:27;;;;;;;;;;;10.30;99.90;;;;;;4736502;30;19915;-76
2020/12/21 12:18:53;;;;;;;;;;;10.50;99.90;;;;;;4734318;30;19964;-76
2020/12/21 12:21:22;;;;;;;;;;;10.50;99.90;;;;;;4736734;30;19923;-76
2020/12/21 12:23:48;;;;;;;;;;;10.50;99.90;;;;;;4738943;30;19918;-76
2020/12/21 12:26:14;;;;;;;;;;;10.60;99.90;;;;;;4739979;30;20425;-76
2020/12/21 12:28:40;;;;;;;;;;;10.80;99.90;;;;;;4735899;30;19918;-76
2020/12/21 12:31:06;;;;;;;;;;;11.00;99.90;;;;;;4736802;30;19914;-76
2020/12/21 12:33:31;;;;;;;;;;;11.30;99.90;;;;;;4736357;30;19996;-76
2020/12/21 12:35:57;;;;;;;;;;;11.60;99.90;;;;;;4735704;30;19918;-76
2020/12/21 12:38:22;;;;;;;;;;;11.70;99.90;;;;;;4736024;30;20317;-76
2020/12/21 12:40:48;;;;;;;;;;;11.80;99.90;;;;;;4736374;30;20444;-76
2020/12/21 12:43:13;;;;;;;;;;;11.90;99.90;;;;;;4736209;30;19923;-76
2020/12/21 12:45:39;;;;;;;;;;;11.80;99.90;;;;;;4736732;30;19972;-76
2020/12/21 12:48:05;;;;;;;;;;;11.80;99.90;;;;;;4736287;30;19996;-76
2020/12/21 12:50:30;;;;;;;;;;;11.70;99.90;;;;;;4735707;30;19914;-76
2020/12/21 12:52:56;;;;;;;;;;;11.80;99.90;;;;;;4736064;30;19957;-76
2020/12/21 12:55:22;;;;;;;;;;;11.90;99.90;;;;;;4735916;30;19914;-76
2020/12/21 12:57:47;;;;;;;;;;;11.80;99.90;;;;;;4736161;30;19993;-76
2020/12/21 13:00:13;;;;;;;;;;;11.80;99.90;;;;;;4735740;30;20356;-76
2020/12/21 13:02:40;;;;;;;;;;;11.80;99.90;;;;;;4736441;30;20354;-76
2020/12/21 13:05:05;;;;;;;;;;;11.80;99.90;;;;;;4735424;30;19980;-77
2020/12/21 13:07:31;;;;;;;;;;;11.90;99.90;;;;;;4735756;30;19918;-76
2020/12/21 13:09:56;;;;;;;;;;;11.90;99.90;;;;;;4729068;30;19945;-77
2020/12/21 13:12:22;;;;;;;;;;;11.80;99.90;;;;;;4717946;30;20342;-79
2020/12/21 13:14:47;;;;;;;;;;;11.80;99.90;;;;;;4718208;30;19918;-80
2020/12/21 13:17:13;;;;;;;;;;;11.80;99.90;;;;;;4718386;30;19965;-80
2020/12/21 13:19:39;;;;;;;;;;;11.80;99.90;;;;;;4717869;30;20288;-78
2020/12/21 13:22:05;;;;;;;;;;;11.80;99.90;;;;;;4717890;30;19958;-77
2020/12/21 13:24:30;;;;;;;;;;;11.80;99.90;;;;;;4717485;30;19957;-78
2020/12/21 13:26:56;;;;;;;;;;;11.80;99.90;;;;;;4718047;30;19919;-77
2020/12/21 13:29:22;;;;;;;;;;;11.60;99.90;;;;;;4717980;30;19980;-78
2020/12/21 13:31:47;;;;;;;;;;;11.60;99.90;;;;;;4718107;30;20376;-78
2020/12/21 13:34:13;;;;;;;;;;;11.70;99.90;;;;;;4718506;30;20005;-78
2020/12/21 13:36:39;;;;;;;;;;;11.80;99.90;;;;;;4717612;30;19950;-77
2020/12/21 13:39:04;;;;;;;;;;;11.80;99.90;;;;;;4730481;30;20390;-77
2020/12/21 13:41:30;;;;;;;;;;;11.90;99.90;;;;;;4735214;30;19922;-77
2020/12/21 13:43:55;;;;;;;;;;;12.00;99.90;;;;;;4735394;30;19918;-77
2020/12/21 13:46:21;;;;;;;;;;;12.10;99.90;;;;;;4732368;30;19918;-77
2020/12/21 13:48:47;;;;;;;;;;;12.20;99.90;;;;;;4734485;30;19915;-77
2020/12/21 13:51:12;;;;;;;;;;;12.10;99.90;;;;;;4735586;30;20005;-78
2020/12/21 13:53:38;;;;;;;;;;;12.00;99.90;;;;;;4735287;30;20009;-77
2020/12/21 13:56:04;;;;;;;;;;;11.90;99.90;;;;;;4734802;30;20490;-78
2020/12/21 13:58:29;;;;;;;;;;;11.80;99.90;;;;;;4735058;30;20319;-77
2020/12/21 14:00:55;;;;;;;;;;;11.70;99.90;;;;;;4735029;30;19941;-79
2020/12/21 14:03:25;;;;;;;;;;;11.70;99.90;;;;;;4735085;30;19949;-77
2020/12/21 14:05:51;;;;;;;;;;;11.80;99.90;;;;;;4733834;30;20361;-80
2020/12/21 14:08:17;;;;;;;;;;;11.80;99.90;;;;;;4718990;30;20006;-79
2020/12/21 14:10:43;;;;;;;;;;;11.80;99.90;;;;;;4730960;30;19918;-79
2020/12/21 14:13:11;;;;;;;;;;;11.90;99.90;;;;;;4733418;30;19921;-80
2020/12/21 14:15:41;;;;;;;;;;;11.90;99.90;;;;;;4723316;30;19918;-81
2020/12/21 14:18:10;;;;;;;;;;;11.90;99.90;;;;;;4731710;30;19974;-81
2020/12/21 14:21:18;;;;;;;;;;;12.00;99.90;;;;;;4731695;30;19957;-80
2020/12/21 14:23:38;;;;;;;;;;;11.90;99.90;;;;;;4731550;30;19949;-81
2020/12/21 14:26:04;;;;;;;;;;;12.00;99.90;;;;;;4703423;30;19918;-80
2020/12/21 14:28:41;;;;;;;;;;;;;;;;;;;;;
2020/12/21 14:31:15;;;;;;;;;;;11.90;99.90;;;;;;4732381;30;19914;-80
2020/12/21 14:33:41;;;;;;;;;;;11.90;99.90;;;;;;4730271;30;19922;-80
2020/12/21 14:36:08;;;;;;;;;;;11.90;99.90;;;;;;4730710;30;19922;-80
2020/12/21 14:38:34;;;;;;;;;;;11.90;99.90;;;;;;4727626;30;19942;-79
2020/12/21 14:41:00;;;;;;;;;;;11.90;99.90;;;;;;4722385;30;19918;-78
2020/12/21 14:43:29;;;;;;;;;;;11.70;99.90;;;;;;4736844;30;20376;-78
2020/12/21 14:45:55;;;;;;;;;;;11.80;99.90;;;;;;4715546;30;19914;-78
2020/12/21 14:48:22;;;;;;;;;;;11.80;99.90;;;;;;4736320;30;20268;-80
2020/12/21 14:50:48;;;;;;;;;;;11.90;99.90;;;;;;4749838;30;20470;-80
2020/12/21 14:53:15;;;;;;;;;;;11.80;99.90;;;;;;4749623;30;19956;-80
2020/12/21 14:55:41;;;;;;;;;;;11.80;99.90;;;;;;4748892;30;20028;-80